createdAt,value
2022-09-12T00:01:25.808Z,15.65
2022-09-12T00:05:28.738Z,19.38
2022-09-12T00:13:36.372Z,16.20
2022-09-12T00:17:42.239Z,19.45
2022-09-12T00:21:48.033Z,17.83
2022-09-12T00:25:50.208Z,14.67
2022-09-12T00:29:55.010Z,16.02
2022-09-12T00:34:01.124Z,13.77
2022-09-12T00:38:04.835Z,15.30
2022-09-12T00:42:07.641Z,14.38
2022-09-12T00:46:31.709Z,14.40
2022-09-12T00:50:41.892Z,14.57
2022-09-12T00:54:53.285Z,13.30
2022-09-12T00:59:05.479Z,11.63
2022-09-12T01:03:17.307Z,14.73
2022-09-12T01:07:20.489Z,14.82
2022-09-12T01:11:23.813Z,12.27
2022-09-12T01:15:31.027Z,13.85
2022-09-12T01:20:11.606Z,14.23
2022-09-12T01:24:44.742Z,15.43
2022-09-12T01:29:02.135Z,15.15
2022-09-12T01:33:39.506Z,19.60
2022-09-12T01:38:09.256Z,15.52
2022-09-12T01:42:18.179Z,13.43
2022-09-12T01:46:30.083Z,15.32
2022-09-12T01:50:44.326Z,17.00
2022-09-12T01:54:57.700Z,16.40
2022-09-12T01:59:17.364Z,19.10
2022-09-12T02:03:27.989Z,15.50
2022-09-12T02:07:53.527Z,13.95
2022-09-12T02:12:04.054Z,16.63
2022-09-12T02:16:14.814Z,16.33
2022-09-12T02:24:55.995Z,16.08
2022-09-12T02:28:58.479Z,16.88
2022-09-12T02:33:15.572Z,17.27
2022-09-12T02:37:30.138Z,20.85
2022-09-12T02:41:32.545Z,19.45
2022-09-12T02:45:37.025Z,18.33
2022-09-12T02:49:40.972Z,17.90
2022-09-12T02:53:51.823Z,17.67
2022-09-12T02:57:54.105Z,16.80
2022-09-12T03:02:15.613Z,13.95
2022-09-12T03:06:55.146Z,21.35
2022-09-12T03:11:49.938Z,16.33
2022-09-12T03:15:54.992Z,17.88
2022-09-12T03:20:09.784Z,21.00
2022-09-12T03:24:47.234Z,20.07
2022-09-12T03:28:54.451Z,18.40
2022-09-12T03:32:56.796Z,25.30
2022-09-12T03:36:59.035Z,20.90
2022-09-12T03:41:01.587Z,19.43
2022-09-12T03:45:07.736Z,21.75
2022-09-12T03:49:15.055Z,18.92
2022-09-12T03:53:19.803Z,24.45
2022-09-12T03:57:22.995Z,29.98
2022-09-12T04:01:25.217Z,25.48
2022-09-12T04:05:27.568Z,30.57
2022-09-12T04:09:31.121Z,29.23
2022-09-12T04:13:38.654Z,34.65
2022-09-12T04:17:41.074Z,31.08
2022-09-12T04:21:45.689Z,35.60
2022-09-12T04:26:02.912Z,32.22
2022-09-12T04:30:05.909Z,36.83
2022-09-12T04:34:08.337Z,30.52
2022-09-12T04:38:12.826Z,32.30
2022-09-12T04:42:15.137Z,30.45
2022-09-12T04:46:20.700Z,24.05
2022-09-12T04:50:22.994Z,32.10
2022-09-12T04:54:28.959Z,27.67
2022-09-12T04:58:33.364Z,27.15
2022-09-12T05:02:38.604Z,34.08
2022-09-12T05:06:47.659Z,32.88
2022-09-12T05:11:00.621Z,29.98
2022-09-12T05:15:03.081Z,30.30
2022-09-12T05:19:08.042Z,32.65
2022-09-12T05:23:10.380Z,30.85
2022-09-12T05:27:15.794Z,36.60
2022-09-12T05:31:28.577Z,38.55
2022-09-12T05:35:31.048Z,43.40
2022-09-12T05:39:34.002Z,44.88
2022-09-12T05:43:40.084Z,43.25
2022-09-12T05:47:48.496Z,54.25
2022-09-12T05:51:52.064Z,52.97
2022-09-12T05:56:26.754Z,50.92
2022-09-12T06:00:33.522Z,47.15
2022-09-12T06:04:46.081Z,42.72
2022-09-12T06:09:01.719Z,43.28
2022-09-12T06:13:09.248Z,37.58
2022-09-12T06:17:23.278Z,40.00
2022-09-12T06:21:31.894Z,37.08
2022-09-12T06:25:46.785Z,37.30
2022-09-12T06:29:49.099Z,33.17
2022-09-12T06:33:57.237Z,34.20
2022-09-12T06:38:05.392Z,31.42
2022-09-12T06:42:10.299Z,33.40
2022-09-12T06:46:13.384Z,31.40
2022-09-12T06:50:27.284Z,25.85
2022-09-12T06:54:29.530Z,34.13
2022-09-12T06:58:43.031Z,27.47
2022-09-12T07:02:54.945Z,26.02
2022-09-12T07:07:09.891Z,19.57
2022-09-12T07:11:18.596Z,21.83
2022-09-12T07:15:21.286Z,18.52
2022-09-12T07:19:26.418Z,17.20
2022-09-12T07:23:31.977Z,19.45
2022-09-12T07:27:40.429Z,19.10
2022-09-12T07:31:43.625Z,15.60
2022-09-12T07:36:01.402Z,15.82
2022-09-12T07:40:04.079Z,12.20
2022-09-12T07:44:09.217Z,13.65
2022-09-12T07:48:11.813Z,15.63
2022-09-12T07:52:16.494Z,10.55
2022-09-12T07:56:29.371Z,11.18
2022-09-12T08:00:36.227Z,10.85
2022-09-12T08:04:38.613Z,9.50
2022-09-12T08:08:49.324Z,9.35
2022-09-12T08:12:51.872Z,8.60
2022-09-12T08:16:54.087Z,11.52
2022-09-12T08:21:03.173Z,10.05
2022-09-12T08:25:05.713Z,8.68
2022-09-12T08:29:22.468Z,9.20
2022-09-12T08:33:27.697Z,9.15
2022-09-12T08:37:33.053Z,10.73
2022-09-12T08:41:49.358Z,11.30
2022-09-12T08:46:06.436Z,9.98
2022-09-12T08:50:08.618Z,9.98
2022-09-12T08:54:22.103Z,8.40
2022-09-12T08:58:30.316Z,10.75
2022-09-12T09:02:52.757Z,9.15
2022-09-12T09:07:30.621Z,9.05
2022-09-12T09:11:53.007Z,10.50
2022-09-12T09:16:16.377Z,8.20
2022-09-12T09:21:00.826Z,8.60
2022-09-12T09:25:11.382Z,9.38
2022-09-12T09:29:23.057Z,7.82
2022-09-12T09:33:34.545Z,6.97
2022-09-12T09:37:43.476Z,8.10
2022-09-12T09:42:10.350Z,7.43
2022-09-12T09:46:14.485Z,9.35
2022-09-12T09:50:17.766Z,8.05
2022-09-12T09:58:41.636Z,8.45
2022-09-12T10:06:52.204Z,6.82
2022-09-12T10:11:04.755Z,10.95
2022-09-12T10:15:28.433Z,11.27
2022-09-12T10:19:52.681Z,9.85
2022-09-12T10:24:26.299Z,13.90
2022-09-12T10:28:45.662Z,9.95
2022-09-12T10:32:51.194Z,9.75
2022-09-12T10:37:13.351Z,10.10
2022-09-12T10:41:20.220Z,9.57
2022-09-12T10:45:39.046Z,9.98
2022-09-12T10:49:41.329Z,12.57
2022-09-12T10:53:46.965Z,10.23
2022-09-12T10:58:31.587Z,10.35
2022-09-12T11:02:37.098Z,8.95
2022-09-12T11:06:50.606Z,9.23
2022-09-12T11:11:00.660Z,9.68
2022-09-12T11:15:20.405Z,10.13
2022-09-12T11:19:56.347Z,9.63
2022-09-12T11:24:06.773Z,8.27
2022-09-12T11:28:20.764Z,9.82
2022-09-12T11:32:38.110Z,8.40
2022-09-12T11:37:07.426Z,8.27
2022-09-12T11:41:27.695Z,7.00
2022-09-12T11:45:39.438Z,6.70
2022-09-12T11:49:52.677Z,7.95
2022-09-12T11:54:05.469Z,8.30
2022-09-12T11:58:11.611Z,8.57
2022-09-12T12:02:35.607Z,9.10
2022-09-12T12:06:52.920Z,5.90
2022-09-12T12:11:03.977Z,6.57
2022-09-12T12:15:16.556Z,7.10
2022-09-12T12:19:19.116Z,7.50
2022-09-12T12:23:26.198Z,7.38
2022-09-12T12:28:09.349Z,6.07
2022-09-12T12:32:28.893Z,6.60
2022-09-12T12:36:44.985Z,6.75
2022-09-12T12:40:50.837Z,5.72
2022-09-12T12:44:56.804Z,6.55
2022-09-12T12:49:18.027Z,6.47
2022-09-12T12:53:38.602Z,5.80
2022-09-12T12:57:59.592Z,6.00
2022-09-12T13:02:02.218Z,7.25
2022-09-12T13:06:10.659Z,5.40
2022-09-12T13:10:29.108Z,7.75
2022-09-12T13:14:48.918Z,5.65
2022-09-12T13:18:54.747Z,6.93
2022-09-12T13:22:58.770Z,6.18
2022-09-12T13:27:04.382Z,5.90
2022-09-12T13:31:35.464Z,5.88
2022-09-12T13:36:12.956Z,4.70
2022-09-12T13:40:33.612Z,6.35
2022-09-12T13:45:05.202Z,7.18
2022-09-12T13:49:18.856Z,6.03
2022-09-12T13:53:36.913Z,5.00
2022-09-12T13:57:42.917Z,4.93
2022-09-12T14:01:51.652Z,6.85
2022-09-12T14:05:57.762Z,5.18
2022-09-12T14:10:06.426Z,6.82
2022-09-12T14:14:25.058Z,6.38
2022-09-12T14:18:39.119Z,5.43
2022-09-12T14:22:46.379Z,4.55
2022-09-12T14:26:59.454Z,5.47
2022-09-12T14:31:27.041Z,7.18
2022-09-12T14:35:33.653Z,6.65
2022-09-12T14:39:45.989Z,6.32
2022-09-12T14:43:54.382Z,5.20
2022-09-12T14:47:59.697Z,5.13
2022-09-12T14:52:16.849Z,6.38
2022-09-12T14:56:22.781Z,4.93
2022-09-12T15:00:25.212Z,5.80
2022-09-12T15:04:48.413Z,5.10
2022-09-12T15:09:01.719Z,6.82
2022-09-12T15:13:28.486Z,4.88
2022-09-12T15:17:35.888Z,8.68
2022-09-12T15:21:38.633Z,5.22
2022-09-12T15:25:45.544Z,5.05
2022-09-12T15:29:52.842Z,5.05
2022-09-12T15:34:03.207Z,7.40
2022-09-12T15:38:13.565Z,4.75
2022-09-12T15:42:24.669Z,4.65
2022-09-12T15:46:28.822Z,3.40
2022-09-12T15:50:31.541Z,3.97
2022-09-12T15:54:36.955Z,7.47
2022-09-12T15:58:57.159Z,5.28
2022-09-12T16:03:02.776Z,4.85
2022-09-12T16:07:14.780Z,4.90
2022-09-12T16:11:23.170Z,5.30
2022-09-12T16:15:28.508Z,4.97
2022-09-12T16:19:33.191Z,5.25
2022-09-12T16:23:36.712Z,4.40
2022-09-12T16:27:45.143Z,7.85
2022-09-12T16:31:50.243Z,4.43
2022-09-12T16:36:04.187Z,4.15
2022-09-12T16:40:23.789Z,3.17
2022-09-12T16:44:28.855Z,3.83
2022-09-12T16:48:34.569Z,4.82
2022-09-12T16:52:36.732Z,4.63
2022-09-12T16:56:42.625Z,4.75
2022-09-12T17:00:44.931Z,4.13
2022-09-12T17:04:49.767Z,3.47
2022-09-12T17:09:04.605Z,5.95
2022-09-12T17:13:06.817Z,4.50
2022-09-12T17:17:14.712Z,5.85
2022-09-12T17:21:19.786Z,4.20
2022-09-12T17:25:28.092Z,4.45
2022-09-12T17:29:34.719Z,5.95
2022-09-12T17:33:39.860Z,5.50
2022-09-12T17:42:04.876Z,5.63
2022-09-12T17:46:20.627Z,8.18
2022-09-12T17:50:31.733Z,8.00
2022-09-12T17:54:47.305Z,5.88
2022-09-12T17:58:57.319Z,7.47
2022-09-12T18:02:59.720Z,6.47
2022-09-12T18:07:11.011Z,7.63
2022-09-12T18:11:13.428Z,8.85
2022-09-12T18:15:17.951Z,5.15
2022-09-12T18:19:24.827Z,7.95
2022-09-12T18:23:31.009Z,5.75
2022-09-12T18:27:37.004Z,6.05
2022-09-12T18:31:44.426Z,5.90
2022-09-12T18:35:47.065Z,7.78
2022-09-12T18:39:51.673Z,6.20
2022-09-12T18:44:03.880Z,6.72
2022-09-12T18:48:08.689Z,9.52
2022-09-12T18:52:10.959Z,4.25
2022-09-12T18:56:29.016Z,4.78
2022-09-12T19:00:31.417Z,4.25
2022-09-12T19:04:59.365Z,9.95
2022-09-12T19:09:06.705Z,6.03
2022-09-12T19:13:12.527Z,5.20
2022-09-12T19:17:15.448Z,9.23
2022-09-12T19:21:20.378Z,7.77
2022-09-12T19:25:25.056Z,4.57
2022-09-12T19:29:27.590Z,8.13
2022-09-12T19:33:31.870Z,5.20
2022-09-12T19:37:34.296Z,4.55
2022-09-12T19:41:38.892Z,7.80
2022-09-12T19:45:48.652Z,10.68
2022-09-12T19:49:52.609Z,5.97
2022-09-12T19:53:57.752Z,5.32
2022-09-12T19:58:04.012Z,5.47
2022-09-12T20:02:06.544Z,5.32
2022-09-12T20:06:11.773Z,8.45
2022-09-12T20:10:15.201Z,10.07
2022-09-12T20:14:18.635Z,6.32
2022-09-12T20:18:21.191Z,11.68
2022-09-12T20:22:26.008Z,6.13
2022-09-12T20:26:31.197Z,7.43
2022-09-12T20:30:33.403Z,6.78
2022-09-12T20:34:35.471Z,5.70
2022-09-12T20:39:01.561Z,6.13
2022-09-12T20:43:03.905Z,4.75
2022-09-12T20:47:08.820Z,6.43
2022-09-12T20:51:11.019Z,5.43
2022-09-12T20:55:13.098Z,8.02
2022-09-12T20:59:18.714Z,7.15
2022-09-12T21:03:25.856Z,9.00
2022-09-12T21:07:28.274Z,6.78
2022-09-12T21:11:30.613Z,6.28
2022-09-12T21:15:32.950Z,6.73
2022-09-12T21:19:35.279Z,5.28
2022-09-12T21:23:40.833Z,8.13
2022-09-12T21:27:43.040Z,5.75
2022-09-12T21:31:45.412Z,9.10
2022-09-12T21:35:50.471Z,7.47
2022-09-12T21:39:53.197Z,6.35
2022-09-12T21:43:55.618Z,7.38
2022-09-12T21:47:57.975Z,5.78
2022-09-12T21:52:00.414Z,6.93
2022-09-12T21:56:05.100Z,5.75
2022-09-12T22:00:12.344Z,5.22
2022-09-12T22:04:22.413Z,4.13
2022-09-12T22:08:24.880Z,6.50
2022-09-12T22:12:30.072Z,5.22
2022-09-12T22:16:34.255Z,3.97
2022-09-12T22:20:39.089Z,6.25
2022-09-12T22:24:46.368Z,5.90
2022-09-12T22:28:50.676Z,4.07
2022-09-12T22:32:53.134Z,5.32
2022-09-12T22:36:55.914Z,8.32
2022-09-12T22:41:06.465Z,7.30
2022-09-12T22:45:09.207Z,5.55
2022-09-12T22:49:14.264Z,4.45
2022-09-12T22:53:28.225Z,5.00
2022-09-12T22:57:30.683Z,5.50
2022-09-12T23:01:35.719Z,5.53
2022-09-12T23:05:40.673Z,5.30
2022-09-12T23:09:42.795Z,8.27
2022-09-12T23:13:46.886Z,6.20
2022-09-12T23:17:49.197Z,7.25
2022-09-12T23:21:51.610Z,6.07
2022-09-12T23:26:13.238Z,4.72
2022-09-12T23:30:18.028Z,4.40
2022-09-12T23:34:20.158Z,9.32
2022-09-12T23:38:24.844Z,6.47
2022-09-12T23:42:27.273Z,5.13
2022-09-12T23:46:32.065Z,4.93
2022-09-12T23:50:34.288Z,6.50
2022-09-12T23:54:37.400Z,6.13
2022-09-12T23:58:39.523Z,8.43
